Terminal Aerodrome Forecast
Issued by NWS Duluth, MN

Home | Current Version | Previous Version | Text Only | Print | Product List | Glossary On
Versions: 1 2 3 4 5 6 7 8 9 10 11 12 13 14 15 16 17 18 19 20 21 22 23 24 25 26 27 28 29 30 31 32 33 34 35 36 37 38 39 40 41 42 43 44
000
FTUS43 KDLH 281100
TAFDLH
TAF
KDLH 281121Z 2812/2912 VRB03KT P6SM SCT040
      TEMPO 2812/2813 6SM BR BKN040
     FM281500 13005KT P6SM SCT045
     FM281900 11008G13KT P6SM SCT045 BKN220
     FM282300 10008G15KT P6SM SCT050 BKN080 PROB30 2903/2907 6SM
      -TSRA SCT015 BKN035CB
     FM290700 08008KT 2SM BR VCSH OVC008
      TEMPO 2907/2911 3/4SM -TSRA BR OVC005CB=

USA.gov is the U.S. government's official web portal to all federal, state and local government web resources and services.